sensor_id;sensor_type;location;lat;lon;timestamp;P1;durP1;ratioP1;P2;durP2;ratioP2
14748;SDS011;7466;53.574;9.976;2022-11-20T00:00:39;4.53;;;4.13;;
14748;SDS011;7466;53.574;9.976;2022-11-20T00:03:06;4.53;;;4.13;;
14748;SDS011;7466;53.574;9.976;2022-11-20T00:05:34;4.90;;;4.43;;
14748;SDS011;7466;53.574;9.976;2022-11-20T00:08:01;4.60;;;4.30;;
14748;SDS011;7466;53.574;9.976;2022-11-20T00:10:28;5.87;;;3.97;;
14748;SDS011;7466;53.574;9.976;2022-11-20T00:12:54;6.00;;;4.37;;
14748;SDS011;7466;53.574;9.976;2022-11-20T00:15:21;4.50;;;4.20;;
14748;SDS011;7466;53.574;9.976;2022-11-20T00:17:48;6.07;;;3.70;;
14748;SDS011;7466;53.574;9.976;2022-11-20T00:20:14;10.50;;;4.50;;
14748;SDS011;7466;53.574;9.976;2022-11-20T00:22:43;5.23;;;4.77;;
14748;SDS011;7466;53.574;9.976;2022-11-20T00:25:10;4.73;;;4.40;;
14748;SDS011;7466;53.574;9.976;2022-11-20T00:27:37;5.27;;;4.30;;
14748;SDS011;7466;53.574;9.976;2022-11-20T00:30:04;7.17;;;4.20;;
14748;SDS011;7466;53.574;9.976;2022-11-20T00:32:31;4.60;;;4.17;;
14748;SDS011;7466;53.574;9.976;2022-11-20T00:34:58;5.43;;;4.27;;
14748;SDS011;7466;53.574;9.976;2022-11-20T00:37:25;5.47;;;4.30;;
14748;SDS011;7466;53.574;9.976;2022-11-20T00:39:56;5.00;;;4.33;;
14748;SDS011;7466;53.574;9.976;2022-11-20T00:42:25;4.33;;;4.03;;
14748;SDS011;7466;53.574;9.976;2022-11-20T00:44:51;4.70;;;4.30;;
14748;SDS011;7466;53.574;9.976;2022-11-20T00:47:18;4.47;;;4.00;;
14748;SDS011;7466;53.574;9.976;2022-11-20T00:49:46;4.80;;;4.30;;
14748;SDS011;7466;53.574;9.976;2022-11-20T00:52:13;4.13;;;3.83;;
14748;SDS011;7466;53.574;9.976;2022-11-20T00:54:40;4.30;;;3.90;;
14748;SDS011;7466;53.574;9.976;2022-11-20T00:57:08;4.40;;;4.03;;
14748;SDS011;7466;53.574;9.976;2022-11-20T00:59:34;4.60;;;4.13;;
14748;SDS011;7466;53.574;9.976;2022-11-20T01:02:01;4.93;;;3.93;;
14748;SDS011;7466;53.574;9.976;2022-11-20T01:04:28;5.33;;;4.57;;
14748;SDS011;7466;53.574;9.976;2022-11-20T01:06:55;4.87;;;4.37;;
14748;SDS011;7466;53.574;9.976;2022-11-20T01:09:21;4.77;;;4.43;;
14748;SDS011;7466;53.574;9.976;2022-11-20T01:11:52;5.00;;;4.30;;
14748;SDS011;7466;53.574;9.976;2022-11-20T01:14:20;6.10;;;4.30;;
14748;SDS011;7466;53.574;9.976;2022-11-20T01:16:47;5.13;;;4.63;;
14748;SDS011;7466;53.574;9.976;2022-11-20T01:19:16;5.40;;;4.37;;
14748;SDS011;7466;53.574;9.976;2022-11-20T01:21:47;4.70;;;4.40;;
14748;SDS011;7466;53.574;9.976;2022-11-20T01:24:17;4.97;;;4.57;;
14748;SDS011;7466;53.574;9.976;2022-11-20T01:26:47;4.80;;;4.40;;
14748;SDS011;7466;53.574;9.976;2022-11-20T01:29:21;4.73;;;4.20;;
14748;SDS011;7466;53.574;9.976;2022-11-20T01:31:49;4.50;;;4.10;;
14748;SDS011;7466;53.574;9.976;2022-11-20T01:34:18;6.60;;;4.47;;
14748;SDS011;7466;53.574;9.976;2022-11-20T01:36:50;4.90;;;4.50;;
14748;SDS011;7466;53.574;9.976;2022-11-20T01:39:19;5.17;;;4.77;;
14748;SDS011;7466;53.574;9.976;2022-11-20T01:41:46;5.20;;;4.80;;
14748;SDS011;7466;53.574;9.976;2022-11-20T01:44:55;5.93;;;5.07;;
14748;SDS011;7466;53.574;9.976;2022-11-20T01:47:25;5.20;;;4.80;;
14748;SDS011;7466;53.574;9.976;2022-11-20T01:49:56;5.53;;;4.70;;
14748;SDS011;7466;53.574;9.976;2022-11-20T01:52:28;5.13;;;4.60;;
14748;SDS011;7466;53.574;9.976;2022-11-20T01:54:59;5.17;;;4.67;;
14748;SDS011;7466;53.574;9.976;2022-11-20T01:57:32;6.03;;;4.63;;
14748;SDS011;7466;53.574;9.976;2022-11-20T02:00:04;5.50;;;4.90;;
14748;SDS011;7466;53.574;9.976;2022-11-20T02:02:33;5.20;;;4.67;;
14748;SDS011;7466;53.574;9.976;2022-11-20T02:05:02;5.57;;;5.07;;
14748;SDS011;7466;53.574;9.976;2022-11-20T02:07:38;5.37;;;4.87;;
14748;SDS011;7466;53.574;9.976;2022-11-20T02:10:05;5.33;;;4.83;;
14748;SDS011;7466;53.574;9.976;2022-11-20T02:12:32;5.37;;;4.87;;
14748;SDS011;7466;53.574;9.976;2022-11-20T02:15:18;4.80;;;4.40;;
14748;SDS011;7466;53.574;9.976;2022-11-20T02:17:45;4.90;;;4.60;;
14748;SDS011;7466;53.574;9.976;2022-11-20T02:20:11;6.30;;;4.80;;
14748;SDS011;7466;53.574;9.976;2022-11-20T02:22:41;5.40;;;4.90;;
14748;SDS011;7466;53.574;9.976;2022-11-20T02:25:15;5.77;;;5.27;;
14748;SDS011;7466;53.574;9.976;2022-11-20T02:27:43;6.03;;;4.90;;
14748;SDS011;7466;53.574;9.976;2022-11-20T02:30:10;5.90;;;5.07;;
14748;SDS011;7466;53.574;9.976;2022-11-20T02:32:38;5.57;;;5.10;;
14748;SDS011;7466;53.574;9.976;2022-11-20T02:35:06;5.37;;;4.87;;
14748;SDS011;7466;53.574;9.976;2022-11-20T02:37:35;5.87;;;5.37;;
14748;SDS011;7466;53.574;9.976;2022-11-20T02:40:06;5.30;;;4.90;;
14748;SDS011;7466;53.574;9.976;2022-11-20T02:42:35;5.37;;;4.97;;
14748;SDS011;7466;53.574;9.976;2022-11-20T02:45:02;5.43;;;4.93;;
14748;SDS011;7466;53.574;9.976;2022-11-20T02:47:29;6.07;;;5.47;;
14748;SDS011;7466;53.574;9.976;2022-11-20T02:49:56;6.63;;;5.00;;
14748;SDS011;7466;53.574;9.976;2022-11-20T02:52:23;5.27;;;4.77;;
14748;SDS011;7466;53.574;9.976;2022-11-20T02:54:50;8.93;;;5.23;;
14748;SDS011;7466;53.574;9.976;2022-11-20T02:57:17;6.40;;;5.90;;
14748;SDS011;7466;53.574;9.976;2022-11-20T02:59:45;5.73;;;5.13;;
14748;SDS011;7466;53.574;9.976;2022-11-20T03:02:15;6.40;;;5.77;;
14748;SDS011;7466;53.574;9.976;2022-11-20T03:04:42;6.47;;;4.67;;
14748;SDS011;7466;53.574;9.976;2022-11-20T03:07:09;6.67;;;4.43;;
14748;SDS011;7466;53.574;9.976;2022-11-20T03:09:35;5.53;;;5.13;;
14748;SDS011;7466;53.574;9.976;2022-11-20T03:12:02;6.07;;;5.10;;
14748;SDS011;7466;53.574;9.976;2022-11-20T03:14:29;5.50;;;5.10;;
14748;SDS011;7466;53.574;9.976;2022-11-20T03:16:57;6.40;;;4.97;;
14748;SDS011;7466;53.574;9.976;2022-11-20T03:19:24;5.43;;;5.00;;
14748;SDS011;7466;53.574;9.976;2022-11-20T03:21:51;6.77;;;4.97;;
14748;SDS011;7466;53.574;9.976;2022-11-20T03:24:19;5.43;;;4.93;;
14748;SDS011;7466;53.574;9.976;2022-11-20T03:26:46;5.40;;;4.90;;
14748;SDS011;7466;53.574;9.976;2022-11-20T03:29:18;4.80;;;4.40;;
14748;SDS011;7466;53.574;9.976;2022-11-20T03:31:46;5.87;;;5.30;;
14748;SDS011;7466;53.574;9.976;2022-11-20T03:34:15;5.03;;;4.67;;
14748;SDS011;7466;53.574;9.976;2022-11-20T03:36:42;5.47;;;4.97;;
14748;SDS011;7466;53.574;9.976;2022-11-20T03:39:09;5.80;;;4.53;;
14748;SDS011;7466;53.574;9.976;2022-11-20T03:41:37;5.23;;;4.83;;
14748;SDS011;7466;53.574;9.976;2022-11-20T03:44:06;5.50;;;5.03;;
14748;SDS011;7466;53.574;9.976;2022-11-20T03:46:34;5.00;;;4.60;;
14748;SDS011;7466;53.574;9.976;2022-11-20T03:49:02;5.20;;;4.70;;
14748;SDS011;7466;53.574;9.976;2022-11-20T03:54:15;7.83;;;5.10;;
14748;SDS011;7466;53.574;9.976;2022-11-20T03:56:42;5.70;;;5.20;;
14748;SDS011;7466;53.574;9.976;2022-11-20T03:59:09;5.80;;;5.30;;
14748;SDS011;7466;53.574;9.976;2022-11-20T04:01:36;5.83;;;5.40;;
14748;SDS011;7466;53.574;9.976;2022-11-20T04:04:03;5.47;;;4.93;;
14748;SDS011;7466;53.574;9.976;2022-11-20T04:06:32;4.97;;;4.50;;
14748;SDS011;7466;53.574;9.976;2022-11-20T04:09:03;5.27;;;4.87;;
14748;SDS011;7466;53.574;9.976;2022-11-20T04:11:35;4.97;;;4.57;;
14748;SDS011;7466;53.574;9.976;2022-11-20T04:14:05;5.73;;;5.20;;
14748;SDS011;7466;53.574;9.976;2022-11-20T04:16:37;5.40;;;4.90;;
14748;SDS011;7466;53.574;9.976;2022-11-20T04:19:09;7.00;;;5.33;;
14748;SDS011;7466;53.574;9.976;2022-11-20T04:21:41;6.30;;;5.00;;
14748;SDS011;7466;53.574;9.976;2022-11-20T04:24:10;8.10;;;4.90;;
14748;SDS011;7466;53.574;9.976;2022-11-20T04:26:38;5.90;;;5.27;;
14748;SDS011;7466;53.574;9.976;2022-11-20T04:29:05;5.80;;;4.97;;
14748;SDS011;7466;53.574;9.976;2022-11-20T04:31:33;7.53;;;4.83;;
14748;SDS011;7466;53.574;9.976;2022-11-20T04:34:00;5.23;;;4.73;;
14748;SDS011;7466;53.574;9.976;2022-11-20T04:36:28;5.93;;;5.37;;
14748;SDS011;7466;53.574;9.976;2022-11-20T04:38:56;6.50;;;4.97;;
14748;SDS011;7466;53.574;9.976;2022-11-20T04:41:26;5.63;;;5.23;;
14748;SDS011;7466;53.574;9.976;2022-11-20T04:43:55;5.53;;;5.03;;
14748;SDS011;7466;53.574;9.976;2022-11-20T04:46:27;5.20;;;4.80;;
14748;SDS011;7466;53.574;9.976;2022-11-20T04:48:55;5.97;;;5.03;;
14748;SDS011;7466;53.574;9.976;2022-11-20T04:51:22;5.27;;;4.87;;
14748;SDS011;7466;53.574;9.976;2022-11-20T04:53:49;5.77;;;5.27;;
14748;SDS011;7466;53.574;9.976;2022-11-20T04:56:16;8.03;;;5.10;;
14748;SDS011;7466;53.574;9.976;2022-11-20T04:58:44;5.70;;;5.20;;
14748;SDS011;7466;53.574;9.976;2022-11-20T05:01:12;5.13;;;4.73;;
14748;SDS011;7466;53.574;9.976;2022-11-20T05:03:40;8.23;;;5.43;;
14748;SDS011;7466;53.574;9.976;2022-11-20T05:06:09;5.27;;;4.87;;
14748;SDS011;7466;53.574;9.976;2022-11-20T05:08:37;5.83;;;5.27;;
14748;SDS011;7466;53.574;9.976;2022-11-20T05:11:04;8.10;;;5.33;;
14748;SDS011;7466;53.574;9.976;2022-11-20T05:13:51;6.60;;;6.00;;
14748;SDS011;7466;53.574;9.976;2022-11-20T05:16:18;5.53;;;4.97;;
14748;SDS011;7466;53.574;9.976;2022-11-20T05:21:30;5.50;;;4.97;;
14748;SDS011;7466;53.574;9.976;2022-11-20T05:23:57;7.27;;;5.50;;
14748;SDS011;7466;53.574;9.976;2022-11-20T05:26:30;6.23;;;5.63;;
14748;SDS011;7466;53.574;9.976;2022-11-20T05:32:08;5.67;;;5.23;;
14748;SDS011;7466;53.574;9.976;2022-11-20T05:34:37;5.80;;;5.27;;
14748;SDS011;7466;53.574;9.976;2022-11-20T05:37:04;6.40;;;5.90;;
14748;SDS011;7466;53.574;9.976;2022-11-20T05:39:31;10.63;;;6.23;;
14748;SDS011;7466;53.574;9.976;2022-11-20T05:42:07;6.93;;;6.30;;
14748;SDS011;7466;53.574;9.976;2022-11-20T05:44:50;7.03;;;5.97;;
14748;SDS011;7466;53.574;9.976;2022-11-20T05:47:19;5.87;;;5.47;;
14748;SDS011;7466;53.574;9.976;2022-11-20T05:49:45;6.50;;;5.90;;
14748;SDS011;7466;53.574;9.976;2022-11-20T05:52:12;6.00;;;5.50;;
14748;SDS011;7466;53.574;9.976;2022-11-20T05:54:39;8.63;;;6.10;;
14748;SDS011;7466;53.574;9.976;2022-11-20T05:57:06;9.33;;;5.93;;
14748;SDS011;7466;53.574;9.976;2022-11-20T05:59:32;7.50;;;6.80;;
14748;SDS011;7466;53.574;9.976;2022-11-20T06:01:59;6.43;;;5.93;;
14748;SDS011;7466;53.574;9.976;2022-11-20T06:04:27;6.70;;;5.83;;
14748;SDS011;7466;53.574;9.976;2022-11-20T06:06:54;7.13;;;6.47;;
14748;SDS011;7466;53.574;9.976;2022-11-20T06:09:21;7.33;;;6.70;;
14748;SDS011;7466;53.574;9.976;2022-11-20T06:11:48;8.20;;;7.40;;
14748;SDS011;7466;53.574;9.976;2022-11-20T06:14:15;8.97;;;8.20;;
14748;SDS011;7466;53.574;9.976;2022-11-20T06:16:41;9.10;;;8.20;;
14748;SDS011;7466;53.574;9.976;2022-11-20T06:19:08;9.60;;;8.83;;
14748;SDS011;7466;53.574;9.976;2022-11-20T06:21:36;10.40;;;9.40;;
14748;SDS011;7466;53.574;9.976;2022-11-20T06:24:04;10.00;;;9.20;;
14748;SDS011;7466;53.574;9.976;2022-11-20T06:26:31;10.87;;;9.77;;
14748;SDS011;7466;53.574;9.976;2022-11-20T06:29:03;11.30;;;10.20;;
14748;SDS011;7466;53.574;9.976;2022-11-20T06:31:46;10.63;;;9.63;;
14748;SDS011;7466;53.574;9.976;2022-11-20T06:34:13;11.10;;;9.50;;
14748;SDS011;7466;53.574;9.976;2022-11-20T06:36:41;11.37;;;10.27;;
14748;SDS011;7466;53.574;9.976;2022-11-20T06:39:08;10.93;;;10.00;;
14748;SDS011;7466;53.574;9.976;2022-11-20T06:41:35;10.00;;;8.53;;
14748;SDS011;7466;53.574;9.976;2022-11-20T06:44:03;9.77;;;8.77;;
14748;SDS011;7466;53.574;9.976;2022-11-20T06:46:30;10.43;;;8.33;;
14748;SDS011;7466;53.574;9.976;2022-11-20T06:48:57;9.30;;;8.47;;
14748;SDS011;7466;53.574;9.976;2022-11-20T06:51:24;9.23;;;8.33;;
14748;SDS011;7466;53.574;9.976;2022-11-20T06:53:52;9.97;;;9.03;;
14748;SDS011;7466;53.574;9.976;2022-11-20T06:56:19;7.40;;;6.80;;
14748;SDS011;7466;53.574;9.976;2022-11-20T06:58:46;8.00;;;7.20;;
14748;SDS011;7466;53.574;9.976;2022-11-20T07:01:13;7.50;;;6.30;;
14748;SDS011;7466;53.574;9.976;2022-11-20T07:03:41;6.70;;;6.17;;
14748;SDS011;7466;53.574;9.976;2022-11-20T07:06:08;6.87;;;6.10;;
14748;SDS011;7466;53.574;9.976;2022-11-20T07:08:52;7.30;;;5.70;;
14748;SDS011;7466;53.574;9.976;2022-11-20T07:11:19;6.87;;;6.37;;
14748;SDS011;7466;53.574;9.976;2022-11-20T07:13:46;6.27;;;5.70;;
14748;SDS011;7466;53.574;9.976;2022-11-20T07:16:19;7.10;;;6.33;;
14748;SDS011;7466;53.574;9.976;2022-11-20T07:18:46;6.20;;;5.60;;
14748;SDS011;7466;53.574;9.976;2022-11-20T07:21:13;6.23;;;5.73;;
14748;SDS011;7466;53.574;9.976;2022-11-20T07:23:40;6.83;;;5.53;;
14748;SDS011;7466;53.574;9.976;2022-11-20T07:26:09;6.33;;;5.73;;
14748;SDS011;7466;53.574;9.976;2022-11-20T07:28:36;6.20;;;5.63;;
14748;SDS011;7466;53.574;9.976;2022-11-20T07:31:06;5.53;;;5.13;;
14748;SDS011;7466;53.574;9.976;2022-11-20T07:33:33;7.20;;;5.67;;
14748;SDS011;7466;53.574;9.976;2022-11-20T07:36:00;5.80;;;5.30;;
14748;SDS011;7466;53.574;9.976;2022-11-20T07:38:27;5.63;;;5.00;;
14748;SDS011;7466;53.574;9.976;2022-11-20T07:40:54;6.57;;;5.97;;
14748;SDS011;7466;53.574;9.976;2022-11-20T07:46:28;6.97;;;6.27;;
14748;SDS011;7466;53.574;9.976;2022-11-20T07:48:56;6.80;;;6.10;;
14748;SDS011;7466;53.574;9.976;2022-11-20T07:51:26;6.80;;;6.17;;
14748;SDS011;7466;53.574;9.976;2022-11-20T07:53:54;6.20;;;5.57;;
14748;SDS011;7466;53.574;9.976;2022-11-20T07:56:32;6.70;;;6.20;;
14748;SDS011;7466;53.574;9.976;2022-11-20T07:58:59;9.07;;;6.30;;
14748;SDS011;7466;53.574;9.976;2022-11-20T08:01:27;6.67;;;6.07;;
14748;SDS011;7466;53.574;9.976;2022-11-20T08:03:58;7.67;;;6.97;;
14748;SDS011;7466;53.574;9.976;2022-11-20T08:06:27;6.70;;;6.13;;
14748;SDS011;7466;53.574;9.976;2022-11-20T08:08:57;6.80;;;6.30;;
14748;SDS011;7466;53.574;9.976;2022-11-20T08:11:24;7.07;;;6.47;;
14748;SDS011;7466;53.574;9.976;2022-11-20T08:14:08;7.67;;;6.90;;
14748;SDS011;7466;53.574;9.976;2022-11-20T08:16:39;7.37;;;6.70;;
14748;SDS011;7466;53.574;9.976;2022-11-20T08:19:10;6.40;;;5.90;;
14748;SDS011;7466;53.574;9.976;2022-11-20T08:24:36;5.47;;;4.97;;
14748;SDS011;7466;53.574;9.976;2022-11-20T08:27:13;5.63;;;5.13;;
14748;SDS011;7466;53.574;9.976;2022-11-20T08:29:39;5.93;;;5.20;;
14748;SDS011;7466;53.574;9.976;2022-11-20T08:34:53;5.20;;;4.87;;
14748;SDS011;7466;53.574;9.976;2022-11-20T08:37:40;5.00;;;4.60;;
14748;SDS011;7466;53.574;9.976;2022-11-20T08:40:18;5.13;;;4.83;;
14748;SDS011;7466;53.574;9.976;2022-11-20T08:42:48;5.00;;;4.60;;
14748;SDS011;7466;53.574;9.976;2022-11-20T08:45:31;4.67;;;4.37;;
14748;SDS011;7466;53.574;9.976;2022-11-20T08:48:11;5.03;;;4.73;;
14748;SDS011;7466;53.574;9.976;2022-11-20T08:50:38;4.67;;;4.37;;
14748;SDS011;7466;53.574;9.976;2022-11-20T08:53:07;5.00;;;4.60;;
14748;SDS011;7466;53.574;9.976;2022-11-20T08:55:35;4.23;;;3.93;;
14748;SDS011;7466;53.574;9.976;2022-11-20T08:58:02;5.03;;;4.63;;
14748;SDS011;7466;53.574;9.976;2022-11-20T09:00:29;4.50;;;4.20;;
14748;SDS011;7466;53.574;9.976;2022-11-20T09:02:56;3.87;;;3.67;;
14748;SDS011;7466;53.574;9.976;2022-11-20T09:05:24;4.60;;;4.30;;
14748;SDS011;7466;53.574;9.976;2022-11-20T09:07:51;4.80;;;4.50;;
14748;SDS011;7466;53.574;9.976;2022-11-20T09:10:18;4.43;;;4.13;;
14748;SDS011;7466;53.574;9.976;2022-11-20T09:12:48;4.50;;;4.20;;
14748;SDS011;7466;53.574;9.976;2022-11-20T09:15:22;4.80;;;4.33;;
14748;SDS011;7466;53.574;9.976;2022-11-20T09:17:52;4.80;;;4.40;;
14748;SDS011;7466;53.574;9.976;2022-11-20T09:20:20;4.50;;;4.20;;
14748;SDS011;7466;53.574;9.976;2022-11-20T09:22:48;4.80;;;4.50;;
14748;SDS011;7466;53.574;9.976;2022-11-20T09:25:15;5.07;;;4.57;;
14748;SDS011;7466;53.574;9.976;2022-11-20T09:27:42;4.90;;;4.57;;
14748;SDS011;7466;53.574;9.976;2022-11-20T09:30:11;5.20;;;4.80;;
14748;SDS011;7466;53.574;9.976;2022-11-20T09:32:39;4.90;;;4.60;;
14748;SDS011;7466;53.574;9.976;2022-11-20T09:35:06;5.40;;;5.00;;
14748;SDS011;7466;53.574;9.976;2022-11-20T09:37:34;5.00;;;4.60;;
14748;SDS011;7466;53.574;9.976;2022-11-20T09:40:02;5.33;;;4.93;;
14748;SDS011;7466;53.574;9.976;2022-11-20T09:42:32;5.10;;;4.80;;
14748;SDS011;7466;53.574;9.976;2022-11-20T09:45:11;4.60;;;4.30;;
14748;SDS011;7466;53.574;9.976;2022-11-20T09:47:49;4.77;;;4.47;;
14748;SDS011;7466;53.574;9.976;2022-11-20T09:50:26;5.33;;;4.93;;
14748;SDS011;7466;53.574;9.976;2022-11-20T09:53:08;4.90;;;4.60;;
14748;SDS011;7466;53.574;9.976;2022-11-20T09:55:40;5.77;;;5.37;;
14748;SDS011;7466;53.574;9.976;2022-11-20T09:58:12;4.97;;;4.67;;
14748;SDS011;7466;53.574;9.976;2022-11-20T10:00:44;4.57;;;4.27;;
14748;SDS011;7466;53.574;9.976;2022-11-20T10:03:13;5.33;;;4.90;;
14748;SDS011;7466;53.574;9.976;2022-11-20T10:05:44;6.03;;;5.53;;
14748;SDS011;7466;53.574;9.976;2022-11-20T10:08:14;4.70;;;4.40;;
14748;SDS011;7466;53.574;9.976;2022-11-20T10:10:52;4.40;;;4.10;;
14748;SDS011;7466;53.574;9.976;2022-11-20T10:13:29;4.77;;;4.47;;
14748;SDS011;7466;53.574;9.976;2022-11-20T10:16:12;4.97;;;4.57;;
14748;SDS011;7466;53.574;9.976;2022-11-20T10:18:51;4.40;;;4.10;;
14748;SDS011;7466;53.574;9.976;2022-11-20T10:21:29;4.73;;;4.33;;
14748;SDS011;7466;53.574;9.976;2022-11-20T10:24:20;5.40;;;5.00;;
14748;SDS011;7466;53.574;9.976;2022-11-20T10:27:06;5.10;;;4.70;;
14748;SDS011;7466;53.574;9.976;2022-11-20T10:29:52;4.70;;;4.40;;
14748;SDS011;7466;53.574;9.976;2022-11-20T10:32:28;4.43;;;4.10;;
14748;SDS011;7466;53.574;9.976;2022-11-20T10:35:01;5.13;;;4.73;;
14748;SDS011;7466;53.574;9.976;2022-11-20T10:37:41;4.70;;;4.40;;
14748;SDS011;7466;53.574;9.976;2022-11-20T10:40:16;4.53;;;4.23;;
14748;SDS011;7466;53.574;9.976;2022-11-20T10:42:50;4.37;;;4.00;;
14748;SDS011;7466;53.574;9.976;2022-11-20T10:45:25;4.30;;;4.00;;
14748;SDS011;7466;53.574;9.976;2022-11-20T10:48:16;4.70;;;4.40;;
14748;SDS011;7466;53.574;9.976;2022-11-20T10:50:55;4.47;;;4.20;;
14748;SDS011;7466;53.574;9.976;2022-11-20T10:56:22;4.77;;;4.33;;
14748;SDS011;7466;53.574;9.976;2022-11-20T10:59:10;4.87;;;4.47;;
14748;SDS011;7466;53.574;9.976;2022-11-20T11:01:50;4.40;;;4.10;;
14748;SDS011;7466;53.574;9.976;2022-11-20T11:04:21;5.00;;;4.70;;
14748;SDS011;7466;53.574;9.976;2022-11-20T11:07:02;5.20;;;4.90;;
14748;SDS011;7466;53.574;9.976;2022-11-20T11:09:37;5.00;;;4.60;;
14748;SDS011;7466;53.574;9.976;2022-11-20T11:12:07;4.60;;;4.30;;
14748;SDS011;7466;53.574;9.976;2022-11-20T11:14:46;4.53;;;4.23;;
14748;SDS011;7466;53.574;9.976;2022-11-20T11:17:27;4.10;;;3.80;;
14748;SDS011;7466;53.574;9.976;2022-11-20T11:19:58;4.53;;;4.13;;
14748;SDS011;7466;53.574;9.976;2022-11-20T11:22:27;4.23;;;4.03;;
14748;SDS011;7466;53.574;9.976;2022-11-20T11:24:55;4.50;;;4.20;;
14748;SDS011;7466;53.574;9.976;2022-11-20T11:27:22;4.50;;;4.10;;
14748;SDS011;7466;53.574;9.976;2022-11-20T11:29:50;4.37;;;4.07;;
14748;SDS011;7466;53.574;9.976;2022-11-20T11:32:28;4.50;;;4.20;;
14748;SDS011;7466;53.574;9.976;2022-11-20T11:35:04;4.30;;;3.97;;
14748;SDS011;7466;53.574;9.976;2022-11-20T11:37:47;4.70;;;4.30;;
14748;SDS011;7466;53.574;9.976;2022-11-20T11:40:14;4.80;;;4.40;;
14748;SDS011;7466;53.574;9.976;2022-11-20T11:42:42;4.40;;;4.20;;
14748;SDS011;7466;53.574;9.976;2022-11-20T11:45:20;4.00;;;3.80;;
14748;SDS011;7466;53.574;9.976;2022-11-20T11:47:47;4.63;;;4.23;;
14748;SDS011;7466;53.574;9.976;2022-11-20T11:50:16;4.83;;;4.53;;
14748;SDS011;7466;53.574;9.976;2022-11-20T11:52:47;3.87;;;3.60;;
14748;SDS011;7466;53.574;9.976;2022-11-20T11:55:25;3.60;;;3.40;;
14748;SDS011;7466;53.574;9.976;2022-11-20T11:57:57;3.50;;;3.30;;
14748;SDS011;7466;53.574;9.976;2022-11-20T12:00:34;3.53;;;3.30;;
14748;SDS011;7466;53.574;9.976;2022-11-20T12:03:04;3.10;;;2.90;;
14748;SDS011;7466;53.574;9.976;2022-11-20T12:05:36;3.70;;;3.50;;
14748;SDS011;7466;53.574;9.976;2022-11-20T12:08:11;4.13;;;3.83;;
14748;SDS011;7466;53.574;9.976;2022-11-20T12:10:43;3.83;;;3.63;;
14748;SDS011;7466;53.574;9.976;2022-11-20T12:13:36;3.13;;;2.93;;
14748;SDS011;7466;53.574;9.976;2022-11-20T12:16:10;2.90;;;2.80;;
14748;SDS011;7466;53.574;9.976;2022-11-20T12:18:39;5.10;;;3.70;;
14748;SDS011;7466;53.574;9.976;2022-11-20T12:21:11;3.20;;;3.10;;
14748;SDS011;7466;53.574;9.976;2022-11-20T12:23:48;3.60;;;3.30;;
14748;SDS011;7466;53.574;9.976;2022-11-20T12:26:26;3.10;;;2.90;;
14748;SDS011;7466;53.574;9.976;2022-11-20T12:29:02;3.17;;;2.97;;
14748;SDS011;7466;53.574;9.976;2022-11-20T12:31:40;3.80;;;3.00;;
14748;SDS011;7466;53.574;9.976;2022-11-20T12:34:22;5.00;;;3.00;;
14748;SDS011;7466;53.574;9.976;2022-11-20T12:37:01;3.77;;;3.53;;
14748;SDS011;7466;53.574;9.976;2022-11-20T12:39:39;3.03;;;2.83;;
14748;SDS011;7466;53.574;9.976;2022-11-20T12:42:14;3.00;;;2.80;;
14748;SDS011;7466;53.574;9.976;2022-11-20T12:45:18;2.87;;;2.67;;
14748;SDS011;7466;53.574;9.976;2022-11-20T12:48:16;2.73;;;2.60;;
14748;SDS011;7466;53.574;9.976;2022-11-20T12:50:50;3.10;;;2.83;;
14748;SDS011;7466;53.574;9.976;2022-11-20T12:53:27;3.30;;;3.07;;
14748;SDS011;7466;53.574;9.976;2022-11-20T12:56:03;3.00;;;2.80;;
14748;SDS011;7466;53.574;9.976;2022-11-20T12:58:45;3.20;;;3.00;;
14748;SDS011;7466;53.574;9.976;2022-11-20T13:01:21;3.67;;;3.47;;
14748;SDS011;7466;53.574;9.976;2022-11-20T13:04:15;3.23;;;3.03;;
14748;SDS011;7466;53.574;9.976;2022-11-20T13:09:50;3.40;;;3.10;;
14748;SDS011;7466;53.574;9.976;2022-11-20T13:12:19;3.40;;;3.20;;
14748;SDS011;7466;53.574;9.976;2022-11-20T13:15:15;3.07;;;2.87;;
14748;SDS011;7466;53.574;9.976;2022-11-20T13:17:51;3.40;;;3.10;;
14748;SDS011;7466;53.574;9.976;2022-11-20T13:20:24;3.17;;;2.97;;
14748;SDS011;7466;53.574;9.976;2022-11-20T13:22:52;2.90;;;2.70;;
14748;SDS011;7466;53.574;9.976;2022-11-20T13:25:34;2.60;;;2.40;;
14748;SDS011;7466;53.574;9.976;2022-11-20T13:28:03;2.43;;;2.33;;
14748;SDS011;7466;53.574;9.976;2022-11-20T13:31:03;2.17;;;2.07;;
14748;SDS011;7466;53.574;9.976;2022-11-20T13:33:30;2.47;;;2.37;;
14748;SDS011;7466;53.574;9.976;2022-11-20T13:36:00;2.30;;;2.20;;
14748;SDS011;7466;53.574;9.976;2022-11-20T13:38:39;2.50;;;2.40;;
14748;SDS011;7466;53.574;9.976;2022-11-20T13:41:10;2.17;;;2.07;;
14748;SDS011;7466;53.574;9.976;2022-11-20T13:43:58;2.03;;;1.93;;
14748;SDS011;7466;53.574;9.976;2022-11-20T13:46:37;2.33;;;2.23;;
14748;SDS011;7466;53.574;9.976;2022-11-20T13:49:18;2.40;;;2.30;;
14748;SDS011;7466;53.574;9.976;2022-11-20T13:58:23;4.10;;;2.27;;
14748;SDS011;7466;53.574;9.976;2022-11-20T14:00:58;2.80;;;2.60;;
14748;SDS011;7466;53.574;9.976;2022-11-20T14:03:47;3.73;;;3.53;;
14748;SDS011;7466;53.574;9.976;2022-11-20T14:06:16;3.30;;;3.10;;
14748;SDS011;7466;53.574;9.976;2022-11-20T14:09:24;3.83;;;2.80;;
14748;SDS011;7466;53.574;9.976;2022-11-20T14:11:52;2.90;;;2.70;;
14748;SDS011;7466;53.574;9.976;2022-11-20T14:14:20;3.30;;;3.10;;
14748;SDS011;7466;53.574;9.976;2022-11-20T14:16:48;3.23;;;3.03;;
14748;SDS011;7466;53.574;9.976;2022-11-20T14:19:23;3.43;;;3.23;;
14748;SDS011;7466;53.574;9.976;2022-11-20T14:21:54;3.90;;;3.57;;
14748;SDS011;7466;53.574;9.976;2022-11-20T14:24:34;4.37;;;3.60;;
14748;SDS011;7466;53.574;9.976;2022-11-20T14:27:01;3.30;;;3.10;;
14748;SDS011;7466;53.574;9.976;2022-11-20T14:29:33;3.17;;;2.97;;
14748;SDS011;7466;53.574;9.976;2022-11-20T14:32:02;3.27;;;3.07;;
14748;SDS011;7466;53.574;9.976;2022-11-20T14:34:31;3.47;;;3.27;;
14748;SDS011;7466;53.574;9.976;2022-11-20T14:37:00;4.90;;;3.67;;
14748;SDS011;7466;53.574;9.976;2022-11-20T14:39:30;3.40;;;3.10;;
14748;SDS011;7466;53.574;9.976;2022-11-20T14:42:00;3.80;;;3.50;;
14748;SDS011;7466;53.574;9.976;2022-11-20T14:44:29;3.53;;;3.23;;
14748;SDS011;7466;53.574;9.976;2022-11-20T14:46:59;3.60;;;3.40;;
14748;SDS011;7466;53.574;9.976;2022-11-20T14:49:28;5.10;;;3.27;;
14748;SDS011;7466;53.574;9.976;2022-11-20T14:51:58;3.60;;;3.30;;
14748;SDS011;7466;53.574;9.976;2022-11-20T14:54:26;3.77;;;3.47;;
14748;SDS011;7466;53.574;9.976;2022-11-20T14:56:54;3.33;;;3.13;;
14748;SDS011;7466;53.574;9.976;2022-11-20T14:59:26;3.47;;;3.27;;
14748;SDS011;7466;53.574;9.976;2022-11-20T15:01:54;4.27;;;3.97;;
14748;SDS011;7466;53.574;9.976;2022-11-20T15:04:32;4.03;;;3.73;;
14748;SDS011;7466;53.574;9.976;2022-11-20T15:07:10;3.77;;;3.57;;
14748;SDS011;7466;53.574;9.976;2022-11-20T15:10:04;3.50;;;3.30;;
14748;SDS011;7466;53.574;9.976;2022-11-20T15:12:37;4.50;;;4.10;;
14748;SDS011;7466;53.574;9.976;2022-11-20T15:15:08;3.93;;;3.63;;
14748;SDS011;7466;53.574;9.976;2022-11-20T15:17:38;4.10;;;3.80;;
14748;SDS011;7466;53.574;9.976;2022-11-20T15:20:09;4.30;;;4.00;;
14748;SDS011;7466;53.574;9.976;2022-11-20T15:22:40;4.53;;;4.23;;
14748;SDS011;7466;53.574;9.976;2022-11-20T15:25:11;3.90;;;3.60;;
14748;SDS011;7466;53.574;9.976;2022-11-20T15:27:40;4.20;;;3.80;;
14748;SDS011;7466;53.574;9.976;2022-11-20T15:30:21;4.70;;;4.20;;
14748;SDS011;7466;53.574;9.976;2022-11-20T15:32:51;5.17;;;4.63;;
14748;SDS011;7466;53.574;9.976;2022-11-20T15:35:18;5.07;;;4.67;;
14748;SDS011;7466;53.574;9.976;2022-11-20T15:37:45;4.83;;;4.53;;
14748;SDS011;7466;53.574;9.976;2022-11-20T15:40:11;5.47;;;5.07;;
14748;SDS011;7466;53.574;9.976;2022-11-20T15:42:38;5.60;;;5.10;;
14748;SDS011;7466;53.574;9.976;2022-11-20T15:45:28;5.80;;;4.90;;
14748;SDS011;7466;53.574;9.976;2022-11-20T15:47:57;5.40;;;4.97;;
14748;SDS011;7466;53.574;9.976;2022-11-20T15:50:32;5.50;;;5.10;;
14748;SDS011;7466;53.574;9.976;2022-11-20T15:53:02;5.87;;;5.37;;
14748;SDS011;7466;53.574;9.976;2022-11-20T15:55:31;5.10;;;4.70;;